sensor_id;sensor_type;location;lat;lon;timestamp;P1;durP1;ratioP1;P2;durP2;ratioP2
56629;SDS011;42502;40.732;-74.254;2022-09-09T00:00:16;1.38;;;0.50;;
56629;SDS011;42502;40.732;-74.254;2022-09-09T00:02:22;0.77;;;0.40;;
56629;SDS011;42502;40.732;-74.254;2022-09-09T00:06:30;0.85;;;0.45;;
56629;SDS011;42502;40.732;-74.254;2022-09-09T00:08:49;2.15;;;0.65;;
56629;SDS011;42502;40.732;-74.254;2022-09-09T00:10:57;1.52;;;0.50;;
56629;SDS011;42502;40.732;-74.254;2022-09-09T00:15:12;2.28;;;0.60;;
56629;SDS011;42502;40.732;-74.254;2022-09-09T00:17:22;2.53;;;0.60;;
56629;SDS011;42502;40.732;-74.254;2022-09-09T00:21:53;3.25;;;0.60;;
56629;SDS011;42502;40.732;-74.254;2022-09-09T00:24:32;2.67;;;0.50;;
56629;SDS011;42502;40.732;-74.254;2022-09-09T00:26:42;2.10;;;0.40;;
56629;SDS011;42502;40.732;-74.254;2022-09-09T00:29:02;1.88;;;0.50;;
56629;SDS011;42502;40.732;-74.254;2022-09-09T00:31:10;2.33;;;0.50;;
56629;SDS011;42502;40.732;-74.254;2022-09-09T00:33:16;1.00;;;0.57;;
56629;SDS011;42502;40.732;-74.254;2022-09-09T00:35:23;2.10;;;0.57;;
56629;SDS011;42502;40.732;-74.254;2022-09-09T00:37:28;3.95;;;0.50;;
56629;SDS011;42502;40.732;-74.254;2022-09-09T00:39:39;2.25;;;0.60;;
56629;SDS011;42502;40.732;-74.254;2022-09-09T00:43:57;1.88;;;0.57;;
56629;SDS011;42502;40.732;-74.254;2022-09-09T00:48:26;1.25;;;0.55;;
56629;SDS011;42502;40.732;-74.254;2022-09-09T00:50:59;0.80;;;0.43;;
56629;SDS011;42502;40.732;-74.254;2022-09-09T00:57:42;5.40;;;0.70;;
56629;SDS011;42502;40.732;-74.254;2022-09-09T01:01:46;0.93;;;0.60;;
56629;SDS011;42502;40.732;-74.254;2022-09-09T01:03:54;2.25;;;0.60;;
56629;SDS011;42502;40.732;-74.254;2022-09-09T01:10:54;0.63;;;0.50;;
56629;SDS011;42502;40.732;-74.254;2022-09-09T01:12:58;2.15;;;0.70;;
56629;SDS011;42502;40.732;-74.254;2022-09-09T01:20:02;2.22;;;0.60;;
56629;SDS011;42502;40.732;-74.254;2022-09-09T01:24:27;1.83;;;0.65;;
56629;SDS011;42502;40.732;-74.254;2022-09-09T01:26:48;1.65;;;0.80;;
56629;SDS011;42502;40.732;-74.254;2022-09-09T01:28:52;1.23;;;0.70;;
56629;SDS011;42502;40.732;-74.254;2022-09-09T01:30:54;1.70;;;0.65;;
56629;SDS011;42502;40.732;-74.254;2022-09-09T01:32:56;3.00;;;0.75;;
56629;SDS011;42502;40.732;-74.254;2022-09-09T01:35:00;1.65;;;0.70;;
56629;SDS011;42502;40.732;-74.254;2022-09-09T01:37:05;2.38;;;0.80;;
56629;SDS011;42502;40.732;-74.254;2022-09-09T01:39:09;1.50;;;0.80;;
56629;SDS011;42502;40.732;-74.254;2022-09-09T01:41:10;3.55;;;0.80;;
56629;SDS011;42502;40.732;-74.254;2022-09-09T01:43:11;1.85;;;0.80;;
56629;SDS011;42502;40.732;-74.254;2022-09-09T01:45:12;2.03;;;0.80;;
56629;SDS011;42502;40.732;-74.254;2022-09-09T01:47:14;2.78;;;1.15;;
56629;SDS011;42502;40.732;-74.254;2022-09-09T01:49:15;1.05;;;0.70;;
56629;SDS011;42502;40.732;-74.254;2022-09-09T01:51:18;1.88;;;0.70;;
56629;SDS011;42502;40.732;-74.254;2022-09-09T01:53:19;5.10;;;0.77;;
56629;SDS011;42502;40.732;-74.254;2022-09-09T01:55:25;5.13;;;1.20;;
56629;SDS011;42502;40.732;-74.254;2022-09-09T01:57:32;9.60;;;1.00;;
56629;SDS011;42502;40.732;-74.254;2022-09-09T02:04:14;4.50;;;1.10;;
56629;SDS011;42502;40.732;-74.254;2022-09-09T02:06:25;5.18;;;0.80;;
56629;SDS011;42502;40.732;-74.254;2022-09-09T02:10:53;3.90;;;0.90;;
56629;SDS011;42502;40.732;-74.254;2022-09-09T02:13:02;4.53;;;0.90;;
56629;SDS011;42502;40.732;-74.254;2022-09-09T02:17:57;2.55;;;1.10;;
56629;SDS011;42502;40.732;-74.254;2022-09-09T02:20:02;2.38;;;0.90;;
56629;SDS011;42502;40.732;-74.254;2022-09-09T02:22:08;2.75;;;0.90;;
56629;SDS011;42502;40.732;-74.254;2022-09-09T02:24:10;2.40;;;0.75;;
56629;SDS011;42502;40.732;-74.254;2022-09-09T02:26:14;1.83;;;0.77;;
56629;SDS011;42502;40.732;-74.254;2022-09-09T02:28:20;0.90;;;0.60;;
56629;SDS011;42502;40.732;-74.254;2022-09-09T02:30:26;2.92;;;0.70;;
56629;SDS011;42502;40.732;-74.254;2022-09-09T02:32:29;1.75;;;0.80;;
56629;SDS011;42502;40.732;-74.254;2022-09-09T02:34:35;1.60;;;0.73;;
56629;SDS011;42502;40.732;-74.254;2022-09-09T02:36:42;1.48;;;0.80;;
56629;SDS011;42502;40.732;-74.254;2022-09-09T02:38:46;0.88;;;0.60;;
56629;SDS011;42502;40.732;-74.254;2022-09-09T02:40:53;1.17;;;0.70;;
56629;SDS011;42502;40.732;-74.254;2022-09-09T02:42:54;1.67;;;0.70;;
56629;SDS011;42502;40.732;-74.254;2022-09-09T02:44:55;2.50;;;0.73;;
56629;SDS011;42502;40.732;-74.254;2022-09-09T02:47:12;1.70;;;0.60;;
56629;SDS011;42502;40.732;-74.254;2022-09-09T02:49:59;2.33;;;0.90;;
56629;SDS011;42502;40.732;-74.254;2022-09-09T02:52:15;1.05;;;0.60;;
56629;SDS011;42502;40.732;-74.254;2022-09-09T02:54:27;2.53;;;0.70;;
56629;SDS011;42502;40.732;-74.254;2022-09-09T02:56:32;0.85;;;0.60;;
56629;SDS011;42502;40.732;-74.254;2022-09-09T02:58:40;2.28;;;0.70;;
56629;SDS011;42502;40.732;-74.254;2022-09-09T03:00:42;3.60;;;0.60;;
56629;SDS011;42502;40.732;-74.254;2022-09-09T03:02:45;4.53;;;0.70;;
56629;SDS011;42502;40.732;-74.254;2022-09-09T03:04:46;1.08;;;0.70;;
56629;SDS011;42502;40.732;-74.254;2022-09-09T03:06:50;1.10;;;0.60;;
56629;SDS011;42502;40.732;-74.254;2022-09-09T03:08:51;4.10;;;0.70;;
56629;SDS011;42502;40.732;-74.254;2022-09-09T03:10:57;1.67;;;0.60;;
56629;SDS011;42502;40.732;-74.254;2022-09-09T03:13:01;2.22;;;0.63;;
56629;SDS011;42502;40.732;-74.254;2022-09-09T03:15:02;2.17;;;0.60;;
56629;SDS011;42502;40.732;-74.254;2022-09-09T03:17:03;2.03;;;0.63;;
56629;SDS011;42502;40.732;-74.254;2022-09-09T03:19:09;2.22;;;0.80;;
56629;SDS011;42502;40.732;-74.254;2022-09-09T03:21:09;2.50;;;0.60;;
56629;SDS011;42502;40.732;-74.254;2022-09-09T03:23:11;1.15;;;0.70;;
56629;SDS011;42502;40.732;-74.254;2022-09-09T03:25:15;1.80;;;0.60;;
56629;SDS011;42502;40.732;-74.254;2022-09-09T03:27:16;2.97;;;0.70;;
56629;SDS011;42502;40.732;-74.254;2022-09-09T03:29:17;1.42;;;0.60;;
56629;SDS011;42502;40.732;-74.254;2022-09-09T03:31:18;0.82;;;0.60;;
56629;SDS011;42502;40.732;-74.254;2022-09-09T03:33:19;1.75;;;0.90;;
56629;SDS011;42502;40.732;-74.254;2022-09-09T03:35:20;2.72;;;0.70;;
56629;SDS011;42502;40.732;-74.254;2022-09-09T03:37:21;3.28;;;0.68;;
56629;SDS011;42502;40.732;-74.254;2022-09-09T03:39:22;1.48;;;0.60;;
56629;SDS011;42502;40.732;-74.254;2022-09-09T03:41:23;1.02;;;0.70;;
56629;SDS011;42502;40.732;-74.254;2022-09-09T03:43:25;1.80;;;0.68;;
56629;SDS011;42502;40.732;-74.254;2022-09-09T03:45:27;0.80;;;0.50;;
56629;SDS011;42502;40.732;-74.254;2022-09-09T03:47:28;1.02;;;0.60;;
56629;SDS011;42502;40.732;-74.254;2022-09-09T03:49:29;3.90;;;0.70;;
56629;SDS011;42502;40.732;-74.254;2022-09-09T03:51:30;0.93;;;0.70;;
56629;SDS011;42502;40.732;-74.254;2022-09-09T03:53:30;1.67;;;0.60;;
56629;SDS011;42502;40.732;-74.254;2022-09-09T03:55:31;0.93;;;0.60;;
56629;SDS011;42502;40.732;-74.254;2022-09-09T03:57:32;3.63;;;0.70;;
56629;SDS011;42502;40.732;-74.254;2022-09-09T03:59:35;1.40;;;0.70;;
56629;SDS011;42502;40.732;-74.254;2022-09-09T04:01:35;1.10;;;0.60;;
56629;SDS011;42502;40.732;-74.254;2022-09-09T04:03:36;3.63;;;0.70;;
56629;SDS011;42502;40.732;-74.254;2022-09-09T04:05:39;1.55;;;0.60;;
56629;SDS011;42502;40.732;-74.254;2022-09-09T04:07:40;0.60;;;0.60;;
56629;SDS011;42502;40.732;-74.254;2022-09-09T04:09:41;1.23;;;0.60;;
56629;SDS011;42502;40.732;-74.254;2022-09-09T04:11:41;1.58;;;0.57;;
56629;SDS011;42502;40.732;-74.254;2022-09-09T04:13:42;1.38;;;0.50;;
56629;SDS011;42502;40.732;-74.254;2022-09-09T04:15:49;1.17;;;0.50;;
56629;SDS011;42502;40.732;-74.254;2022-09-09T04:17:51;1.70;;;0.60;;
56629;SDS011;42502;40.732;-74.254;2022-09-09T04:19:52;1.67;;;0.50;;
56629;SDS011;42502;40.732;-74.254;2022-09-09T04:21:53;0.80;;;0.60;;
56629;SDS011;42502;40.732;-74.254;2022-09-09T04:23:53;0.95;;;0.50;;
56629;SDS011;42502;40.732;-74.254;2022-09-09T04:25:55;1.40;;;0.60;;
56629;SDS011;42502;40.732;-74.254;2022-09-09T04:27:57;2.25;;;0.60;;
56629;SDS011;42502;40.732;-74.254;2022-09-09T04:29:58;1.40;;;0.60;;
56629;SDS011;42502;40.732;-74.254;2022-09-09T04:31:59;1.00;;;0.57;;
56629;SDS011;42502;40.732;-74.254;2022-09-09T04:33:59;0.93;;;0.52;;
56629;SDS011;42502;40.732;-74.254;2022-09-09T04:36:05;1.08;;;0.52;;
56629;SDS011;42502;40.732;-74.254;2022-09-09T04:38:06;1.23;;;0.50;;
56629;SDS011;42502;40.732;-74.254;2022-09-09T04:40:09;0.90;;;0.60;;
56629;SDS011;42502;40.732;-74.254;2022-09-09T04:42:10;1.38;;;0.57;;
56629;SDS011;42502;40.732;-74.254;2022-09-09T04:44:13;0.65;;;0.50;;
56629;SDS011;42502;40.732;-74.254;2022-09-09T04:46:13;1.90;;;0.55;;
56629;SDS011;42502;40.732;-74.254;2022-09-09T04:48:15;1.25;;;0.43;;
56629;SDS011;42502;40.732;-74.254;2022-09-09T04:50:16;1.40;;;0.60;;
56629;SDS011;42502;40.732;-74.254;2022-09-09T04:52:16;1.63;;;0.63;;
56629;SDS011;42502;40.732;-74.254;2022-09-09T04:54:18;0.50;;;0.50;;
56629;SDS011;42502;40.732;-74.254;2022-09-09T04:56:19;1.75;;;0.50;;
56629;SDS011;42502;40.732;-74.254;2022-09-09T04:58:20;0.68;;;0.50;;
56629;SDS011;42502;40.732;-74.254;2022-09-09T05:00:22;1.00;;;0.60;;
56629;SDS011;42502;40.732;-74.254;2022-09-09T05:02:26;1.15;;;0.70;;
56629;SDS011;42502;40.732;-74.254;2022-09-09T05:04:27;0.63;;;0.50;;
56629;SDS011;42502;40.732;-74.254;2022-09-09T05:06:28;0.90;;;0.60;;
56629;SDS011;42502;40.732;-74.254;2022-09-09T05:08:31;2.53;;;0.55;;
56629;SDS011;42502;40.732;-74.254;2022-09-09T05:10:33;0.82;;;0.50;;
56629;SDS011;42502;40.732;-74.254;2022-09-09T05:12:35;1.75;;;0.45;;
56629;SDS011;42502;40.732;-74.254;2022-09-09T05:14:35;0.68;;;0.50;;
56629;SDS011;42502;40.732;-74.254;2022-09-09T05:16:37;1.17;;;0.70;;
56629;SDS011;42502;40.732;-74.254;2022-09-09T05:18:38;0.65;;;0.50;;
56629;SDS011;42502;40.732;-74.254;2022-09-09T05:20:40;0.82;;;0.50;;
56629;SDS011;42502;40.732;-74.254;2022-09-09T05:22:42;1.85;;;0.50;;
56629;SDS011;42502;40.732;-74.254;2022-09-09T05:24:44;1.42;;;0.50;;
56629;SDS011;42502;40.732;-74.254;2022-09-09T05:26:45;0.98;;;0.52;;
56629;SDS011;42502;40.732;-74.254;2022-09-09T05:28:45;1.15;;;0.50;;
56629;SDS011;42502;40.732;-74.254;2022-09-09T05:30:54;0.95;;;0.50;;
56629;SDS011;42502;40.732;-74.254;2022-09-09T05:32:56;0.55;;;0.40;;
56629;SDS011;42502;40.732;-74.254;2022-09-09T05:34:57;1.15;;;0.50;;
56629;SDS011;42502;40.732;-74.254;2022-09-09T05:36:59;0.68;;;0.50;;
56629;SDS011;42502;40.732;-74.254;2022-09-09T05:38:59;1.05;;;0.47;;
56629;SDS011;42502;40.732;-74.254;2022-09-09T05:41:01;1.23;;;0.50;;
56629;SDS011;42502;40.732;-74.254;2022-09-09T05:43:03;1.58;;;0.50;;
56629;SDS011;42502;40.732;-74.254;2022-09-09T05:45:04;1.58;;;0.50;;
56629;SDS011;42502;40.732;-74.254;2022-09-09T05:47:05;1.77;;;0.60;;
56629;SDS011;42502;40.732;-74.254;2022-09-09T05:49:08;0.60;;;0.50;;
56629;SDS011;42502;40.732;-74.254;2022-09-09T05:51:10;1.73;;;0.50;;
56629;SDS011;42502;40.732;-74.254;2022-09-09T05:53:17;0.70;;;0.40;;
56629;SDS011;42502;40.732;-74.254;2022-09-09T05:55:18;1.50;;;0.50;;
56629;SDS011;42502;40.732;-74.254;2022-09-09T05:57:19;1.08;;;0.47;;
56629;SDS011;42502;40.732;-74.254;2022-09-09T05:59:20;2.58;;;0.50;;
56629;SDS011;42502;40.732;-74.254;2022-09-09T06:03:24;0.80;;;0.50;;
56629;SDS011;42502;40.732;-74.254;2022-09-09T06:05:25;0.63;;;0.50;;
56629;SDS011;42502;40.732;-74.254;2022-09-09T06:07:28;0.47;;;0.40;;
56629;SDS011;42502;40.732;-74.254;2022-09-09T06:09:29;5.35;;;0.50;;
56629;SDS011;42502;40.732;-74.254;2022-09-09T06:11:30;1.50;;;0.57;;
56629;SDS011;42502;40.732;-74.254;2022-09-09T06:13:31;0.63;;;0.50;;
56629;SDS011;42502;40.732;-74.254;2022-09-09T06:15:32;0.50;;;0.40;;
56629;SDS011;42502;40.732;-74.254;2022-09-09T06:17:34;0.45;;;0.45;;
56629;SDS011;42502;40.732;-74.254;2022-09-09T06:19:34;4.22;;;0.57;;
56629;SDS011;42502;40.732;-74.254;2022-09-09T06:21:36;1.75;;;0.50;;
56629;SDS011;42502;40.732;-74.254;2022-09-09T06:23:38;1.77;;;0.60;;
56629;SDS011;42502;40.732;-74.254;2022-09-09T06:25:40;1.23;;;0.55;;
56629;SDS011;42502;40.732;-74.254;2022-09-09T06:27:41;1.20;;;0.60;;
56629;SDS011;42502;40.732;-74.254;2022-09-09T06:29:42;1.83;;;0.50;;
56629;SDS011;42502;40.732;-74.254;2022-09-09T06:31:43;0.52;;;0.50;;
56629;SDS011;42502;40.732;-74.254;2022-09-09T06:33:44;1.05;;;0.40;;
56629;SDS011;42502;40.732;-74.254;2022-09-09T06:35:50;0.88;;;0.55;;
56629;SDS011;42502;40.732;-74.254;2022-09-09T06:37:53;0.50;;;0.50;;
56629;SDS011;42502;40.732;-74.254;2022-09-09T06:39:53;0.47;;;0.43;;
56629;SDS011;42502;40.732;-74.254;2022-09-09T06:41:54;0.60;;;0.40;;
56629;SDS011;42502;40.732;-74.254;2022-09-09T06:43:55;1.15;;;0.50;;
56629;SDS011;42502;40.732;-74.254;2022-09-09T06:45:58;0.95;;;0.50;;
56629;SDS011;42502;40.732;-74.254;2022-09-09T06:48:00;1.58;;;0.60;;
56629;SDS011;42502;40.732;-74.254;2022-09-09T06:50:01;0.50;;;0.50;;
56629;SDS011;42502;40.732;-74.254;2022-09-09T06:52:02;1.00;;;0.50;;
56629;SDS011;42502;40.732;-74.254;2022-09-09T06:54:03;0.70;;;0.50;;
56629;SDS011;42502;40.732;-74.254;2022-09-09T06:58:10;0.85;;;0.50;;
56629;SDS011;42502;40.732;-74.254;2022-09-09T07:00:11;1.67;;;0.60;;
56629;SDS011;42502;40.732;-74.254;2022-09-09T07:02:13;0.55;;;0.50;;
56629;SDS011;42502;40.732;-74.254;2022-09-09T07:04:15;1.35;;;0.60;;
56629;SDS011;42502;40.732;-74.254;2022-09-09T07:06:16;1.17;;;0.68;;
56629;SDS011;42502;40.732;-74.254;2022-09-09T07:08:23;1.00;;;0.50;;
56629;SDS011;42502;40.732;-74.254;2022-09-09T07:10:24;0.52;;;0.50;;
56629;SDS011;42502;40.732;-74.254;2022-09-09T07:12:25;1.85;;;0.60;;
56629;SDS011;42502;40.732;-74.254;2022-09-09T07:14:26;0.70;;;0.60;;
56629;SDS011;42502;40.732;-74.254;2022-09-09T07:16:27;0.60;;;0.50;;
56629;SDS011;42502;40.732;-74.254;2022-09-09T07:18:31;0.60;;;0.60;;
56629;SDS011;42502;40.732;-74.254;2022-09-09T07:20:32;0.50;;;0.50;;
56629;SDS011;42502;40.732;-74.254;2022-09-09T07:22:32;1.08;;;0.50;;
56629;SDS011;42502;40.732;-74.254;2022-09-09T07:24:33;0.63;;;0.50;;
56629;SDS011;42502;40.732;-74.254;2022-09-09T07:26:34;0.93;;;0.50;;
56629;SDS011;42502;40.732;-74.254;2022-09-09T07:28:35;0.60;;;0.60;;
56629;SDS011;42502;40.732;-74.254;2022-09-09T07:30:36;0.73;;;0.60;;
56629;SDS011;42502;40.732;-74.254;2022-09-09T07:32:37;1.63;;;0.57;;
56629;SDS011;42502;40.732;-74.254;2022-09-09T07:34:37;0.63;;;0.60;;
56629;SDS011;42502;40.732;-74.254;2022-09-09T07:36:39;0.50;;;0.50;;
56629;SDS011;42502;40.732;-74.254;2022-09-09T07:38:43;0.90;;;0.68;;
56629;SDS011;42502;40.732;-74.254;2022-09-09T07:40:46;0.57;;;0.50;;
56629;SDS011;42502;40.732;-74.254;2022-09-09T07:42:47;0.60;;;0.50;;
56629;SDS011;42502;40.732;-74.254;2022-09-09T07:44:48;0.70;;;0.63;;
56629;SDS011;42502;40.732;-74.254;2022-09-09T07:46:48;1.67;;;0.63;;
56629;SDS011;42502;40.732;-74.254;2022-09-09T07:48:50;0.50;;;0.50;;
56629;SDS011;42502;40.732;-74.254;2022-09-09T07:50:52;1.35;;;0.60;;
56629;SDS011;42502;40.732;-74.254;2022-09-09T07:52:53;0.65;;;0.60;;
56629;SDS011;42502;40.732;-74.254;2022-09-09T07:54:54;0.93;;;0.65;;
56629;SDS011;42502;40.732;-74.254;2022-09-09T07:56:56;2.47;;;0.57;;
56629;SDS011;42502;40.732;-74.254;2022-09-09T07:58:57;0.90;;;0.60;;
56629;SDS011;42502;40.732;-74.254;2022-09-09T08:00:59;0.80;;;0.50;;
56629;SDS011;42502;40.732;-74.254;2022-09-09T08:02:59;0.68;;;0.60;;
56629;SDS011;42502;40.732;-74.254;2022-09-09T08:05:02;0.77;;;0.60;;
56629;SDS011;42502;40.732;-74.254;2022-09-09T08:07:03;1.20;;;0.60;;
56629;SDS011;42502;40.732;-74.254;2022-09-09T08:09:05;1.92;;;0.52;;
56629;SDS011;42502;40.732;-74.254;2022-09-09T08:13:17;0.75;;;0.60;;
56629;SDS011;42502;40.732;-74.254;2022-09-09T08:15:18;0.80;;;0.60;;
56629;SDS011;42502;40.732;-74.254;2022-09-09T08:17:19;1.33;;;0.60;;
56629;SDS011;42502;40.732;-74.254;2022-09-09T08:19:19;0.50;;;0.50;;
56629;SDS011;42502;40.732;-74.254;2022-09-09T08:21:22;0.60;;;0.60;;
56629;SDS011;42502;40.732;-74.254;2022-09-09T08:23:24;1.13;;;0.60;;
56629;SDS011;42502;40.732;-74.254;2022-09-09T08:25:26;1.67;;;0.60;;
56629;SDS011;42502;40.732;-74.254;2022-09-09T08:27:26;0.80;;;0.60;;
56629;SDS011;42502;40.732;-74.254;2022-09-09T08:29:27;0.75;;;0.60;;
56629;SDS011;42502;40.732;-74.254;2022-09-09T08:31:35;0.98;;;0.50;;
56629;SDS011;42502;40.732;-74.254;2022-09-09T08:33:37;0.65;;;0.60;;
56629;SDS011;42502;40.732;-74.254;2022-09-09T08:35:38;1.83;;;0.50;;
56629;SDS011;42502;40.732;-74.254;2022-09-09T08:37:39;1.63;;;0.63;;
56629;SDS011;42502;40.732;-74.254;2022-09-09T08:39:40;0.63;;;0.50;;
56629;SDS011;42502;40.732;-74.254;2022-09-09T08:44:06;0.60;;;0.60;;
56629;SDS011;42502;40.732;-74.254;2022-09-09T08:46:11;2.60;;;0.60;;
56629;SDS011;42502;40.732;-74.254;2022-09-09T08:50:29;0.60;;;0.60;;
56629;SDS011;42502;40.732;-74.254;2022-09-09T08:54:45;1.80;;;0.60;;
56629;SDS011;42502;40.732;-74.254;2022-09-09T08:56:47;2.05;;;0.82;;
56629;SDS011;42502;40.732;-74.254;2022-09-09T08:58:50;0.80;;;0.60;;
56629;SDS011;42502;40.732;-74.254;2022-09-09T09:05:43;0.80;;;0.50;;
56629;SDS011;42502;40.732;-74.254;2022-09-09T09:07:53;1.17;;;0.50;;
56629;SDS011;42502;40.732;-74.254;2022-09-09T09:10:25;0.50;;;0.50;;
56629;SDS011;42502;40.732;-74.254;2022-09-09T09:12:38;2.85;;;0.70;;
56629;SDS011;42502;40.732;-74.254;2022-09-09T09:14:43;1.10;;;0.50;;
56629;SDS011;42502;40.732;-74.254;2022-09-09T09:19:07;0.40;;;0.40;;
56629;SDS011;42502;40.732;-74.254;2022-09-09T09:21:16;0.80;;;0.68;;
56629;SDS011;42502;40.732;-74.254;2022-09-09T09:23:43;1.80;;;0.60;;
56629;SDS011;42502;40.732;-74.254;2022-09-09T09:25:52;0.45;;;0.45;;
56629;SDS011;42502;40.732;-74.254;2022-09-09T09:28:17;0.80;;;0.40;;
56629;SDS011;42502;40.732;-74.254;2022-09-09T09:30:25;0.50;;;0.50;;
56629;SDS011;42502;40.732;-74.254;2022-09-09T09:32:30;0.57;;;0.50;;
56629;SDS011;42502;40.732;-74.254;2022-09-09T09:34:35;0.60;;;0.40;;
56629;SDS011;42502;40.732;-74.254;2022-09-09T09:36:39;0.77;;;0.60;;
56629;SDS011;42502;40.732;-74.254;2022-09-09T09:38:57;1.27;;;0.60;;
56629;SDS011;42502;40.732;-74.254;2022-09-09T09:41:00;9.75;;;0.57;;
56629;SDS011;42502;40.732;-74.254;2022-09-09T09:43:01;0.68;;;0.50;;
56629;SDS011;42502;40.732;-74.254;2022-09-09T09:45:31;0.73;;;0.50;;
56629;SDS011;42502;40.732;-74.254;2022-09-09T09:47:32;0.70;;;0.50;;
56629;SDS011;42502;40.732;-74.254;2022-09-09T09:49:33;1.70;;;0.52;;
56629;SDS011;42502;40.732;-74.254;2022-09-09T09:51:34;1.60;;;0.60;;
56629;SDS011;42502;40.732;-74.254;2022-09-09T09:53:36;0.73;;;0.40;;
56629;SDS011;42502;40.732;-74.254;2022-09-09T09:55:44;0.70;;;0.50;;
56629;SDS011;42502;40.732;-74.254;2022-09-09T09:57:53;0.50;;;0.50;;
56629;SDS011;42502;40.732;-74.254;2022-09-09T10:00:00;0.60;;;0.45;;
56629;SDS011;42502;40.732;-74.254;2022-09-09T10:02:23;2.58;;;0.50;;
56629;SDS011;42502;40.732;-74.254;2022-09-09T10:04:26;1.67;;;0.50;;
56629;SDS011;42502;40.732;-74.254;2022-09-09T10:08:44;0.65;;;0.50;;
56629;SDS011;42502;40.732;-74.254;2022-09-09T10:10:52;2.28;;;0.60;;
56629;SDS011;42502;40.732;-74.254;2022-09-09T10:13:23;0.68;;;0.40;;
56629;SDS011;42502;40.732;-74.254;2022-09-09T10:15:31;0.60;;;0.50;;
56629;SDS011;42502;40.732;-74.254;2022-09-09T10:22:52;2.28;;;0.55;;
56629;SDS011;42502;40.732;-74.254;2022-09-09T10:25:04;1.75;;;0.50;;
56629;SDS011;42502;40.732;-74.254;2022-09-09T10:27:40;0.60;;;0.50;;
56629;SDS011;42502;40.732;-74.254;2022-09-09T10:30:07;0.68;;;0.40;;
56629;SDS011;42502;40.732;-74.254;2022-09-09T10:44:02;3.70;;;0.50;;
56629;SDS011;42502;40.732;-74.254;2022-09-09T10:50:53;1.10;;;0.40;;
56629;SDS011;42502;40.732;-74.254;2022-09-09T10:53:09;1.05;;;0.50;;
56629;SDS011;42502;40.732;-74.254;2022-09-09T10:55:17;0.63;;;0.43;;
56629;SDS011;42502;40.732;-74.254;2022-09-09T10:59:41;2.60;;;0.43;;
56629;SDS011;42502;40.732;-74.254;2022-09-09T11:01:49;5.15;;;0.50;;
56629;SDS011;42502;40.732;-74.254;2022-09-09T11:04:05;2.50;;;0.50;;
56629;SDS011;42502;40.732;-74.254;2022-09-09T11:06:16;2.55;;;0.50;;
56629;SDS011;42502;40.732;-74.254;2022-09-09T11:08:22;1.20;;;0.50;;
56629;SDS011;42502;40.732;-74.254;2022-09-09T11:10:29;2.03;;;0.60;;
56629;SDS011;42502;40.732;-74.254;2022-09-09T11:12:34;2.65;;;0.57;;
56629;SDS011;42502;40.732;-74.254;2022-09-09T11:17:03;4.22;;;0.52;;
56629;SDS011;42502;40.732;-74.254;2022-09-09T11:21:37;8.88;;;0.55;;
56629;SDS011;42502;40.732;-74.254;2022-09-09T11:23:44;2.28;;;0.50;;
56629;SDS011;42502;40.732;-74.254;2022-09-09T11:25:55;1.98;;;0.55;;
56629;SDS011;42502;40.732;-74.254;2022-09-09T11:37:39;4.35;;;0.52;;
56629;SDS011;42502;40.732;-74.254;2022-09-09T11:40:09;1.20;;;0.50;;
56629;SDS011;42502;40.732;-74.254;2022-09-09T11:42:22;3.83;;;0.70;;
56629;SDS011;42502;40.732;-74.254;2022-09-09T11:44:29;5.15;;;0.60;;
56629;SDS011;42502;40.732;-74.254;2022-09-09T11:46:32;1.83;;;0.40;;
56629;SDS011;42502;40.732;-74.254;2022-09-09T11:48:37;1.25;;;0.40;;
56629;SDS011;42502;40.732;-74.254;2022-09-09T11:50:43;3.30;;;0.50;;
56629;SDS011;42502;40.732;-74.254;2022-09-09T11:52:44;1.38;;;0.43;;
56629;SDS011;42502;40.732;-74.254;2022-09-09T11:54:47;0.98;;;0.50;;
56629;SDS011;42502;40.732;-74.254;2022-09-09T11:56:49;1.00;;;0.40;;
56629;SDS011;42502;40.732;-74.254;2022-09-09T11:59:33;0.85;;;0.50;;
56629;SDS011;42502;40.732;-74.254;2022-09-09T12:01:29;0.95;;;0.50;;
56629;SDS011;42502;40.732;-74.254;2022-09-09T12:05:42;2.20;;;0.47;;
56629;SDS011;42502;40.732;-74.254;2022-09-09T12:07:52;0.50;;;0.40;;
56629;SDS011;42502;40.732;-74.254;2022-09-09T12:12:07;0.85;;;0.50;;
56629;SDS011;42502;40.732;-74.254;2022-09-09T12:14:21;0.43;;;0.38;;
56629;SDS011;42502;40.732;-74.254;2022-09-09T12:16:30;0.45;;;0.45;;
56629;SDS011;42502;40.732;-74.254;2022-09-09T12:18:38;3.17;;;0.55;;
56629;SDS011;42502;40.732;-74.254;2022-09-09T12:20:40;0.70;;;0.50;;
56629;SDS011;42502;40.732;-74.254;2022-09-09T12:33:01;0.60;;;0.40;;
56629;SDS011;42502;40.732;-74.254;2022-09-09T12:35:13;2.30;;;0.50;;
56629;SDS011;42502;40.732;-74.254;2022-09-09T12:37:51;1.95;;;0.50;;
56629;SDS011;42502;40.732;-74.254;2022-09-09T12:39:57;1.83;;;0.55;;
56629;SDS011;42502;40.732;-74.254;2022-09-09T12:41:59;1.27;;;0.55;;
56629;SDS011;42502;40.732;-74.254;2022-09-09T12:44:04;2.40;;;0.40;;
56629;SDS011;42502;40.732;-74.254;2022-09-09T12:46:20;2.45;;;0.50;;
56629;SDS011;42502;40.732;-74.254;2022-09-09T12:48:22;2.85;;;0.50;;
56629;SDS011;42502;40.732;-74.254;2022-09-09T12:50:37;0.40;;;0.40;;
56629;SDS011;42502;40.732;-74.254;2022-09-09T12:52:43;2.65;;;0.50;;
56629;SDS011;42502;40.732;-74.254;2022-09-09T12:54:47;2.78;;;0.50;;
56629;SDS011;42502;40.732;-74.254;2022-09-09T12:56:48;2.35;;;0.50;;
56629;SDS011;42502;40.732;-74.254;2022-09-09T12:58:50;2.67;;;0.60;;
56629;SDS011;42502;40.732;-74.254;2022-09-09T13:00:55;2.58;;;0.43;;
56629;SDS011;42502;40.732;-74.254;2022-09-09T13:03:00;2.08;;;0.50;;
56629;SDS011;42502;40.732;-74.254;2022-09-09T13:05:08;1.23;;;0.40;;
56629;SDS011;42502;40.732;-74.254;2022-09-09T13:07:17;6.43;;;0.50;;
56629;SDS011;42502;40.732;-74.254;2022-09-09T13:09:19;2.72;;;0.50;;
56629;SDS011;42502;40.732;-74.254;2022-09-09T13:11:41;2.05;;;0.60;;
56629;SDS011;42502;40.732;-74.254;2022-09-09T13:13:54;2.15;;;0.50;;
56629;SDS011;42502;40.732;-74.254;2022-09-09T13:15:57;0.90;;;0.50;;
56629;SDS011;42502;40.732;-74.254;2022-09-09T13:18:01;1.30;;;0.50;;
56629;SDS011;42502;40.732;-74.254;2022-09-09T13:20:17;1.10;;;0.50;;
56629;SDS011;42502;40.732;-74.254;2022-09-09T13:22:35;3.45;;;0.60;;
56629;SDS011;42502;40.732;-74.254;2022-09-09T13:24:40;2.92;;;0.50;;
56629;SDS011;42502;40.732;-74.254;2022-09-09T13:26:42;1.27;;;0.43;;
56629;SDS011;42502;40.732;-74.254;2022-09-09T13:28:44;2.50;;;0.55;;
56629;SDS011;42502;40.732;-74.254;2022-09-09T13:30:54;2.97;;;0.60;;
56629;SDS011;42502;40.732;-74.254;2022-09-09T13:33:00;2.35;;;0.60;;
56629;SDS011;42502;40.732;-74.254;2022-09-09T13:35:22;1.05;;;0.60;;
56629;SDS011;42502;40.732;-74.254;2022-09-09T13:37:37;0.82;;;0.43;;
56629;SDS011;42502;40.732;-74.254;2022-09-09T13:39:50;3.90;;;0.50;;
56629;SDS011;42502;40.732;-74.254;2022-09-09T13:41:55;4.13;;;0.70;;
56629;SDS011;42502;40.732;-74.254;2022-09-09T13:43:57;2.10;;;0.60;;
56629;SDS011;42502;40.732;-74.254;2022-09-09T13:46:00;4.45;;;0.68;;
56629;SDS011;42502;40.732;-74.254;2022-09-09T13:48:08;2.80;;;0.65;;
56629;SDS011;42502;40.732;-74.254;2022-09-09T13:50:20;1.60;;;0.50;;
56629;SDS011;42502;40.732;-74.254;2022-09-09T13:52:30;5.53;;;0.57;;
56629;SDS011;42502;40.732;-74.254;2022-09-09T13:54:31;2.45;;;0.50;;
56629;SDS011;42502;40.732;-74.254;2022-09-09T13:56:32;2.03;;;0.50;;
56629;SDS011;42502;40.732;-74.254;2022-09-09T13:58:35;6.53;;;0.50;;
56629;SDS011;42502;40.732;-74.254;2022-09-09T14:00:36;2.08;;;0.50;;
56629;SDS011;42502;40.732;-74.254;2022-09-09T14:02:36;3.03;;;0.50;;
56629;SDS011;42502;40.732;-74.254;2022-09-09T14:04:39;4.50;;;0.43;;
56629;SDS011;42502;40.732;-74.254;2022-09-09T14:06:41;3.15;;;0.50;;